Time;durP1;ratioP1;P1;durP2;ratioP2;P2;SDS_P1;SDS_P2;PMS_P1;PMS_P2;Temp;Humidity;BMP_temperature;BMP_pressure;BME280_temperature;BME280_humidity;BME280_pressure;Samples;Min_cycle;Max_cycle;Signal;HPM_P1;HPM_P2
2022/04/24 00:01:25;;;;;;;6.50;5.90;;;12.90;94.30;;;;;;5025916;28;21069;-42
2022/04/24 00:03:51;;;;;;;6.43;5.83;;;12.70;94.40;;;;;;5032272;28;20512;-42
2022/04/24 00:06:17;;;;;;;6.53;5.93;;;12.70;94.50;;;;;;5031031;28;20205;-41
2022/04/24 00:08:43;;;;;;;6.87;5.97;;;12.70;94.80;;;;;;5032544;28;20213;-42
2022/04/24 00:11:08;;;;;;;5.63;5.07;;;12.70;94.80;;;;;;5032148;28;20240;-42
2022/04/24 00:13:41;;;;;;;6.23;5.63;;;12.60;95.00;;;;;;5028793;28;20190;-42
2022/04/24 00:16:10;;;;;;;6.20;5.70;;;12.50;95.60;;;;;;5025984;28;20186;-42
2022/04/24 00:18:39;;;;;;;7.07;6.33;;;12.40;95.70;;;;;;5031948;28;20425;-42
2022/04/24 00:21:05;;;;;;;6.80;6.20;;;12.30;96.00;;;;;;5017627;28;20421;-42
2022/04/24 00:23:32;;;;;;;6.10;5.60;;;12.20;96.40;;;;;;5031995;28;20417;-42
2022/04/24 00:25:58;;;;;;;6.70;6.10;;;12.20;96.70;;;;;;5052235;28;20463;-42
2022/04/24 00:28:24;;;;;;;6.00;5.50;;;12.20;96.70;;;;;;5051077;28;20424;-42
2022/04/24 00:30:50;;;;;;;8.77;6.20;;;12.20;96.60;;;;;;5023965;28;20773;-42
2022/04/24 00:33:16;;;;;;;6.33;5.83;;;12.30;96.60;;;;;;5030316;28;20417;-42
2022/04/24 00:35:42;;;;;;;6.90;6.30;;;12.20;96.50;;;;;;5032302;28;20629;-42
2022/04/24 00:38:07;;;;;;;6.23;5.73;;;12.30;96.70;;;;;;5031886;28;20515;-42
2022/04/24 00:40:33;;;;;;;8.97;6.77;;;12.20;96.70;;;;;;5030022;28;20664;-42
2022/04/24 00:42:59;;;;;;;7.63;6.97;;;12.10;97.00;;;;;;5030371;28;20205;-42
2022/04/24 00:45:24;;;;;;;6.97;6.20;;;12.10;97.30;;;;;;5027456;28;20241;-42
2022/04/24 00:47:50;;;;;;;7.23;6.53;;;12.10;97.30;;;;;;5030243;28;20879;-42
2022/04/24 00:50:17;;;;;;;7.10;6.50;;;12.10;97.40;;;;;;5029874;28;20218;-42
2022/04/24 00:52:43;;;;;;;7.17;6.47;;;12.00;97.40;;;;;;5031650;28;20237;-42
2022/04/24 00:55:09;;;;;;;6.80;6.20;;;12.10;97.10;;;;;;5031584;28;21197;-42
2022/04/24 00:57:35;;;;;;;8.33;7.43;;;12.00;97.10;;;;;;5031604;28;20477;-42
2022/04/24 01:00:01;;;;;;;6.63;6.07;;;12.00;97.20;;;;;;5024632;28;20473;-42
2022/04/24 01:02:27;;;;;;;7.20;6.50;;;11.90;97.80;;;;;;5029940;28;20414;-42
2022/04/24 01:04:53;;;;;;;7.67;6.97;;;11.90;97.80;;;;;;5030371;28;20456;-42
2022/04/24 01:07:19;;;;;;;7.20;6.60;;;11.80;97.90;;;;;;5031710;28;20204;-42
2022/04/24 01:09:44;;;;;;;7.00;6.40;;;11.80;98.00;;;;;;5030816;28;21137;-42
2022/04/24 01:12:10;;;;;;;6.93;6.33;;;11.60;97.90;;;;;;5031370;28;20235;-42
2022/04/24 01:14:36;;;;;;;7.43;6.70;;;11.70;98.20;;;;;;5023621;28;20187;-42
2022/04/24 01:17:04;;;;;;;8.40;7.37;;;11.70;98.20;;;;;;5041754;28;20214;-42
2022/04/24 01:19:30;;;;;;;7.43;6.73;;;11.70;98.10;;;;;;5031280;28;20522;-41
2022/04/24 01:21:57;;;;;;;7.33;6.67;;;11.70;98.10;;;;;;5030440;28;20445;-42
2022/04/24 01:24:28;;;;;;;7.63;7.03;;;11.70;98.40;;;;;;5036902;28;20444;-42
2022/04/24 01:26:54;;;;;;;7.10;6.40;;;11.60;98.60;;;;;;5050717;28;20464;-42
2022/04/24 01:29:20;;;;;;;7.63;6.97;;;11.50;98.80;;;;;;5041590;28;20444;-43
2022/04/24 01:31:48;;;;;;;7.60;6.83;;;11.40;99.00;;;;;;5024167;28;20739;-42
2022/04/24 01:34:14;;;;;;;7.43;6.83;;;11.30;99.40;;;;;;5031109;28;20792;-42
2022/04/24 01:36:41;;;;;;;7.60;6.90;;;11.20;99.90;;;;;;5030903;28;20926;-42
2022/04/24 01:39:07;;;;;;;7.77;6.97;;;11.10;99.90;;;;;;5030897;28;20421;-42
2022/04/24 01:41:33;;;;;;;7.40;6.70;;;11.00;99.90;;;;;;5028867;28;20525;-42
2022/04/24 01:43:58;;;;;;;8.43;7.33;;;11.00;99.90;;;;;;5029071;28;20520;-42
2022/04/24 01:46:24;;;;;;;6.90;6.30;;;10.90;99.90;;;;;;5025488;28;20463;-42
2022/04/24 01:48:50;;;;;;;8.13;7.43;;;11.00;99.90;;;;;;5030612;28;20183;-42
2022/04/24 01:51:16;;;;;;;7.00;6.40;;;11.00;99.90;;;;;;5030136;28;20171;-42
2022/04/24 01:53:43;;;;;;;7.80;7.00;;;11.10;99.90;;;;;;5030599;28;20503;-42
2022/04/24 01:56:10;;;;;;;7.87;7.10;;;11.00;99.90;;;;;;5030682;28;20409;-42
2022/04/24 01:58:36;;;;;;;9.20;7.90;;;11.20;99.90;;;;;;5029708;28;20467;-42
2022/04/24 02:01:03;;;;;;;7.90;7.20;;;11.30;99.90;;;;;;5015790;28;20834;-42
2022/04/24 02:03:29;;;;;;;8.00;7.30;;;11.20;99.90;;;;;;5030166;28;20421;-42
2022/04/24 02:05:56;;;;;;;8.27;7.50;;;11.40;99.90;;;;;;5029309;28;20459;-42
2022/04/24 02:08:22;;;;;;;7.57;6.87;;;11.20;99.90;;;;;;5030299;28;20428;-43
2022/04/24 02:10:48;;;;;;;8.07;7.37;;;10.90;99.90;;;;;;5029753;28;20842;-42
2022/04/24 02:13:14;;;;;;;8.67;7.77;;;10.80;99.90;;;;;;5029964;28;20428;-42
2022/04/24 02:15:40;;;;;;;8.33;7.53;;;10.80;99.90;;;;;;5019266;28;20206;-42
2022/04/24 02:18:06;;;;;;;7.53;6.83;;;10.80;99.90;;;;;;5029937;28;20217;-42
2022/04/24 02:20:32;;;;;;;7.67;6.97;;;10.90;99.90;;;;;;5029291;28;20432;-42
2022/04/24 02:22:58;;;;;;;8.13;7.17;;;10.90;99.90;;;;;;5029903;28;20436;-42
2022/04/24 02:25:28;;;;;;;7.60;6.97;;;10.80;99.90;;;;;;5045274;28;20637;-42
2022/04/24 02:27:56;;;;;;;8.23;7.43;;;10.70;99.90;;;;;;5049820;28;20424;-42
2022/04/24 02:30:24;;;;;;;8.17;7.37;;;10.80;99.90;;;;;;5028785;28;21204;-42
2022/04/24 02:32:49;;;;;;;7.70;7.00;;;10.70;99.90;;;;;;5025821;28;21016;-42
2022/04/24 02:35:15;;;;;;;7.80;7.10;;;10.80;99.90;;;;;;5029685;28;20472;-42
2022/04/24 02:37:42;;;;;;;8.20;7.50;;;10.80;99.90;;;;;;5029826;28;20269;-42
2022/04/24 02:40:09;;;;;;;9.33;7.50;;;10.60;99.90;;;;;;5028955;28;20197;-42
2022/04/24 02:42:39;;;;;;;8.40;7.60;;;10.90;99.90;;;;;;5029691;28;20417;-41
2022/04/24 02:45:09;;;;;;;7.20;6.60;;;10.60;99.90;;;;;;5024501;28;20812;-42
2022/04/24 02:47:38;;;;;;;8.57;7.70;;;10.70;99.90;;;;;;5024089;28;20429;-42
2022/04/24 02:50:04;;;;;;;8.53;7.63;;;10.50;99.90;;;;;;5028949;28;20495;-42
2022/04/24 02:52:30;;;;;;;8.00;7.30;;;10.40;99.90;;;;;;5029294;28;21158;-42
2022/04/24 02:54:55;;;;;;;7.50;6.80;;;10.40;99.90;;;;;;5029362;28;20504;-42
2022/04/24 02:57:21;;;;;;;7.93;7.23;;;10.30;99.90;;;;;;5029334;28;20289;-42
2022/04/24 02:59:50;;;;;;;8.20;7.40;;;10.20;99.90;;;;;;5024377;28;20257;-42
2022/04/24 03:02:16;;;;;;;9.30;8.40;;;10.40;99.90;;;;;;5024744;28;20684;-42
2022/04/24 03:04:42;;;;;;;9.20;8.30;;;10.20;99.90;;;;;;5028079;28;21143;-42
2022/04/24 03:07:08;;;;;;;8.27;7.40;;;10.40;99.90;;;;;;5029035;28;20425;-42
2022/04/24 03:09:34;;;;;;;8.50;7.60;;;10.40;99.90;;;;;;5028041;28;20498;-42
2022/04/24 03:11:59;;;;;;;8.17;7.47;;;10.20;99.90;;;;;;5029200;28;20225;-42
2022/04/24 03:14:25;;;;;;;7.73;7.03;;;10.10;99.90;;;;;;5029059;28;20212;-42
2022/04/24 03:16:51;;;;;;;9.10;8.30;;;10.20;99.90;;;;;;5018011;28;20191;-42
2022/04/24 03:19:16;;;;;;;8.47;7.67;;;10.30;99.90;;;;;;5028841;28;20686;-41
2022/04/24 03:21:42;;;;;;;9.60;8.60;;;10.10;99.90;;;;;;5028427;28;20217;-42
2022/04/24 03:24:08;;;;;;;9.53;8.63;;;10.30;99.90;;;;;;5033557;28;20645;-42
2022/04/24 03:26:33;;;;;;;9.20;8.33;;;10.40;99.90;;;;;;5049003;28;20209;-42
2022/04/24 03:28:59;;;;;;;9.43;8.63;;;10.40;99.90;;;;;;5048971;28;20489;-42
2022/04/24 03:31:24;;;;;;;9.70;8.60;;;10.20;99.90;;;;;;5021402;28;20333;-42
2022/04/24 03:33:52;;;;;;;10.00;9.03;;;10.10;99.90;;;;;;5028766;28;20270;-42
2022/04/24 03:36:18;;;;;;;9.43;8.53;;;10.10;99.90;;;;;;5029179;28;20194;-42
2022/04/24 03:38:44;;;;;;;10.67;9.67;;;9.80;99.90;;;;;;5028922;28;20429;-42
2022/04/24 03:41:10;;;;;;;11.63;9.57;;;10.00;99.90;;;;;;5028581;28;20421;-42
2022/04/24 03:43:36;;;;;;;9.90;9.00;;;10.00;99.90;;;;;;5028893;28;20472;-42
2022/04/24 03:46:02;;;;;;;10.07;9.13;;;10.00;99.90;;;;;;5019390;28;20214;-42
2022/04/24 03:48:27;;;;;;;10.73;9.73;;;10.00;99.90;;;;;;5028841;28;20738;-41
2022/04/24 03:50:53;;;;;;;10.77;9.67;;;9.80;99.90;;;;;;5028048;28;20413;-42
2022/04/24 03:53:18;;;;;;;9.60;8.70;;;10.00;99.90;;;;;;5028412;28;20191;-42
2022/04/24 03:55:45;;;;;;;10.50;9.60;;;9.70;99.90;;;;;;5028745;28;20221;-42
2022/04/24 03:58:11;;;;;;;9.90;9.00;;;9.60;99.90;;;;;;5028694;28;20206;-42
2022/04/24 04:00:37;;;;;;;9.93;8.73;;;9.80;99.90;;;;;;5019810;28;20462;-42
2022/04/24 04:03:03;;;;;;;10.50;9.60;;;9.60;99.90;;;;;;5027274;28;20453;-42
2022/04/24 04:05:29;;;;;;;10.70;9.70;;;9.80;99.90;;;;;;5027681;28;20559;-42
2022/04/24 04:07:55;;;;;;;9.60;8.70;;;9.70;99.90;;;;;;5027273;28;20425;-42
2022/04/24 04:10:22;;;;;;;11.47;10.37;;;9.70;99.90;;;;;;5026539;28;20479;-42
2022/04/24 04:12:49;;;;;;;11.23;10.13;;;9.70;99.90;;;;;;5028659;28;20436;-42
2022/04/24 04:15:15;;;;;;;10.90;9.80;;;9.60;99.90;;;;;;5024757;28;20425;-42
2022/04/24 04:17:40;;;;;;;11.13;10.03;;;9.60;99.90;;;;;;5027368;28;20800;-42
2022/04/24 04:20:11;;;;;;;10.70;9.70;;;9.50;99.90;;;;;;5027842;28;20233;-42
2022/04/24 04:22:51;;;;;;;11.23;9.60;;;9.60;99.90;;;;;;5031975;28;20281;-42
2022/04/24 04:25:22;;;;;;;11.23;9.30;;;9.80;99.90;;;;;;5046766;28;20839;-42
2022/04/24 04:27:48;;;;;;;10.90;9.90;;;9.60;99.90;;;;;;5052177;28;20889;-42
2022/04/24 04:30:15;;;;;;;11.20;9.60;;;9.70;99.90;;;;;;5046052;28;20482;-42
2022/04/24 04:32:40;;;;;;;10.00;9.10;;;9.60;99.90;;;;;;5020592;28;20425;-42
2022/04/24 04:35:09;;;;;;;11.10;10.00;;;9.70;99.90;;;;;;5032058;28;20443;-42
2022/04/24 04:37:39;;;;;;;11.10;9.97;;;9.60;99.90;;;;;;5032028;28;20197;-42
2022/04/24 04:40:07;;;;;;;11.90;10.70;;;9.60;99.90;;;;;;5031399;28;20558;-42
2022/04/24 04:42:33;;;;;;;12.27;9.90;;;9.60;99.90;;;;;;5031728;28;20429;-42
2022/04/24 04:45:00;;;;;;;11.80;10.40;;;9.50;99.90;;;;;;5031459;28;20436;-42
2022/04/24 04:47:27;;;;;;;10.80;9.80;;;9.70;99.90;;;;;;5020754;28;20448;-42
2022/04/24 04:49:54;;;;;;;10.30;9.40;;;9.50;99.90;;;;;;5030974;28;20932;-42
2022/04/24 04:52:19;;;;;;;10.70;9.60;;;9.50;99.90;;;;;;5031838;28;21036;-42
2022/04/24 04:54:45;;;;;;;11.60;10.40;;;9.50;99.90;;;;;;5031651;28;20511;-42
2022/04/24 04:57:10;;;;;;;10.93;9.83;;;9.80;99.90;;;;;;5031689;28;20213;-43
2022/04/24 04:59:36;;;;;;;10.63;9.60;;;9.60;99.90;;;;;;5031143;28;20238;-42
2022/04/24 05:02:02;;;;;;;10.53;9.53;;;9.50;99.90;;;;;;5022993;28;20226;-42
2022/04/24 05:04:27;;;;;;;10.33;9.33;;;9.90;99.90;;;;;;5030312;28;20189;-42
2022/04/24 05:06:53;;;;;;;11.10;10.00;;;9.60;99.90;;;;;;5031506;28;20582;-42
2022/04/24 05:09:18;;;;;;;10.67;9.63;;;9.60;99.90;;;;;;5031205;28;20688;-42
2022/04/24 05:11:44;;;;;;;11.57;9.87;;;9.80;99.90;;;;;;5030938;28;20205;-42
2022/04/24 05:14:10;;;;;;;10.80;9.40;;;9.60;99.90;;;;;;5031141;28;20191;-42
2022/04/24 05:16:35;;;;;;;10.73;9.70;;;9.60;99.90;;;;;;5023681;28;20306;-42
2022/04/24 05:19:02;;;;;;;11.73;9.70;;;9.70;99.90;;;;;;5028731;28;20179;-42
2022/04/24 05:21:28;;;;;;;10.40;9.30;;;9.60;99.90;;;;;;5030542;28;20209;-43
2022/04/24 05:23:54;;;;;;;10.50;9.40;;;9.70;99.90;;;;;;5032484;28;20813;-42
2022/04/24 05:26:20;;;;;;;10.80;9.70;;;9.70;99.90;;;;;;5040821;28;20217;-42
2022/04/24 05:28:45;;;;;;;10.47;9.30;;;9.70;99.90;;;;;;5050992;28;20699;-42
2022/04/24 05:31:11;;;;;;;10.70;9.60;;;10.00;99.90;;;;;;5036610;28;20431;-42
2022/04/24 05:33:37;;;;;;;9.87;8.90;;;9.70;99.90;;;;;;5028022;28;20194;-42
2022/04/24 05:36:05;;;;;;;9.10;8.20;;;9.80;99.90;;;;;;5030907;28;20908;-42
2022/04/24 05:38:30;;;;;;;10.30;9.30;;;10.00;99.90;;;;;;5030770;28;20429;-42
2022/04/24 05:40:56;;;;;;;10.33;9.20;;;10.00;99.90;;;;;;5030216;28;20428;-42
2022/04/24 05:43:22;;;;;;;10.53;9.47;;;10.10;99.90;;;;;;5030752;28;20217;-42
2022/04/24 05:45:47;;;;;;;9.17;8.27;;;10.10;99.90;;;;;;5026777;28;20306;-42
2022/04/24 05:48:13;;;;;;;10.70;8.33;;;10.30;99.90;;;;;;5026443;28;20178;-42
2022/04/24 05:50:39;;;;;;;9.30;8.00;;;10.40;99.90;;;;;;5028318;28;20182;-42
2022/04/24 05:53:05;;;;;;;10.00;9.10;;;10.60;99.90;;;;;;5030478;28;20217;-42
2022/04/24 05:55:31;;;;;;;9.70;8.70;;;10.80;99.90;;;;;;5030492;28;20198;-42
2022/04/24 05:57:57;;;;;;;9.80;8.73;;;11.10;99.90;;;;;;5030232;28;20456;-42
2022/04/24 06:00:22;;;;;;;9.17;8.20;;;11.30;99.90;;;;;;5029833;28;20214;-42
2022/04/24 06:02:48;;;;;;;9.20;8.30;;;11.40;99.90;;;;;;5019199;28;20194;-41
2022/04/24 06:05:14;;;;;;;10.13;9.13;;;11.80;99.90;;;;;;5029346;28;20213;-42
2022/04/24 06:07:40;;;;;;;9.83;7.67;;;11.80;99.90;;;;;;5030109;28;20248;-42
2022/04/24 06:10:07;;;;;;;8.57;7.80;;;11.80;99.90;;;;;;5029576;28;20735;-42
2022/04/24 06:12:44;;;;;;;9.00;8.20;;;11.90;99.90;;;;;;5029892;28;20425;-42
2022/04/24 06:15:15;;;;;;;9.27;7.73;;;12.10;99.90;;;;;;5030190;28;20482;-42
2022/04/24 06:17:40;;;;;;;9.70;8.33;;;12.20;99.90;;;;;;5019048;28;20440;-42
2022/04/24 06:20:07;;;;;;;9.70;8.20;;;12.30;99.90;;;;;;5029494;28;20413;-42
2022/04/24 06:22:45;;;;;;;9.50;8.60;;;12.30;99.90;;;;;;5029909;28;20194;-42
2022/04/24 06:25:31;;;;;;;9.83;8.90;;;12.40;99.90;;;;;;5034948;28;20515;-42
2022/04/24 06:27:57;;;;;;;8.93;7.70;;;12.60;99.90;;;;;;5049779;28;20413;-42
2022/04/24 06:30:25;;;;;;;9.40;8.60;;;12.70;99.90;;;;;;5047696;28;20504;-42
2022/04/24 06:32:51;;;;;;;9.67;8.77;;;12.90;99.70;;;;;;5023792;28;20483;-42
2022/04/24 06:35:18;;;;;;;9.57;8.70;;;13.00;99.40;;;;;;5029751;28;20417;-42
2022/04/24 06:37:49;;;;;;;9.43;8.23;;;13.00;99.20;;;;;;5029577;28;20425;-42
2022/04/24 06:40:16;;;;;;;9.70;8.80;;;13.00;99.10;;;;;;5028918;28;20417;-42
2022/04/24 06:42:49;;;;;;;10.10;8.77;;;13.10;98.70;;;;;;5029823;28;20432;-42
2022/04/24 06:45:16;;;;;;;9.93;8.97;;;13.30;98.60;;;;;;5029552;28;20493;-42
2022/04/24 06:47:42;;;;;;;8.90;8.00;;;13.30;98.30;;;;;;5015918;28;20438;-42
2022/04/24 06:50:09;;;;;;;9.47;8.13;;;13.50;97.80;;;;;;5025824;28;20420;-42
2022/04/24 06:52:34;;;;;;;9.50;8.50;;;13.60;97.80;;;;;;5021619;28;20421;-42
2022/04/24 06:55:00;;;;;;;8.93;8.10;;;13.80;97.70;;;;;;5029395;28;20435;-42
2022/04/24 06:57:26;;;;;;;9.60;8.60;;;13.90;97.20;;;;;;5029419;28;20202;-42
2022/04/24 06:59:52;;;;;;;10.33;9.40;;;13.90;97.10;;;;;;5028715;28;20236;-42
2022/04/24 07:02:18;;;;;;;10.50;9.60;;;14.10;97.00;;;;;;5026178;28;20433;-42
2022/04/24 07:04:44;;;;;;;10.13;9.13;;;14.00;97.20;;;;;;5024151;28;20298;-42
2022/04/24 07:07:09;;;;;;;8.87;7.97;;;13.90;96.90;;;;;;5040228;28;20749;-43
2022/04/24 07:09:35;;;;;;;9.37;8.47;;;13.90;97.10;;;;;;5047895;28;20424;-42
2022/04/24 07:12:00;;;;;;;9.50;8.60;;;14.00;97.10;;;;;;5039766;28;20185;-42
2022/04/24 07:14:26;;;;;;;8.90;8.00;;;14.10;96.90;;;;;;5036544;28;20520;-42
2022/04/24 07:16:52;;;;;;;9.30;8.30;;;14.10;96.70;;;;;;5021805;28;20221;-42
2022/04/24 07:19:17;;;;;;;9.17;8.27;;;14.10;96.80;;;;;;5027395;28;20190;-43
2022/04/24 07:21:43;;;;;;;9.20;8.30;;;14.00;96.90;;;;;;5028377;28;20221;-42
2022/04/24 07:24:08;;;;;;;8.27;7.47;;;13.90;96.70;;;;;;5033987;28;20451;-42
2022/04/24 07:26:34;;;;;;;8.40;7.70;;;13.80;97.00;;;;;;5043777;28;20296;-42
2022/04/24 07:29:00;;;;;;;9.40;8.13;;;13.80;97.60;;;;;;5048986;28;20189;-42
2022/04/24 07:31:25;;;;;;;9.80;8.80;;;13.80;97.20;;;;;;5042600;28;20666;-42
2022/04/24 07:33:52;;;;;;;10.27;8.73;;;13.80;97.40;;;;;;5018885;28;20560;-42
2022/04/24 07:36:18;;;;;;;9.33;8.23;;;13.70;97.50;;;;;;5028767;28;20228;-42
2022/04/24 07:38:44;;;;;;;10.13;9.27;;;13.50;97.80;;;;;;5029053;28;20860;-43
2022/04/24 07:41:10;;;;;;;10.70;9.60;;;13.60;97.90;;;;;;5028477;28;20191;-42
2022/04/24 07:43:36;;;;;;;9.27;8.40;;;13.60;97.40;;;;;;5028720;28;20251;-42
2022/04/24 07:46:02;;;;;;;9.73;8.83;;;13.60;97.50;;;;;;5028916;28;20461;-42
2022/04/24 07:48:28;;;;;;;10.20;8.63;;;13.50;97.40;;;;;;5018112;28;20284;-42
2022/04/24 07:50:53;;;;;;;10.17;9.07;;;13.40;97.50;;;;;;5028140;28;20186;-42
2022/04/24 07:53:21;;;;;;;8.70;7.80;;;13.30;98.00;;;;;;5028575;28;20308;-42
2022/04/24 07:55:49;;;;;;;9.73;8.83;;;13.40;98.30;;;;;;5028336;28;20661;-42
2022/04/24 07:58:15;;;;;;;9.27;8.37;;;13.50;98.30;;;;;;5032578;28;20445;-42
2022/04/24 08:00:41;;;;;;;9.00;8.20;;;13.50;98.30;;;;;;5032267;28;20779;-42
2022/04/24 08:03:09;;;;;;;9.97;8.93;;;13.50;98.40;;;;;;5025935;28;20792;-42
2022/04/24 08:05:44;;;;;;;9.40;8.50;;;13.50;98.30;;;;;;5029956;28;20472;-42
2022/04/24 08:08:16;;;;;;;9.70;8.70;;;13.50;98.10;;;;;;5032539;28;20412;-42
2022/04/24 08:10:43;;;;;;;9.97;8.97;;;13.50;98.30;;;;;;5032057;28;20413;-42
2022/04/24 08:13:09;;;;;;;10.13;9.23;;;13.60;98.00;;;;;;5032545;28;20994;-42
2022/04/24 08:15:36;;;;;;;10.30;9.30;;;13.60;98.10;;;;;;5032253;28;20429;-42
2022/04/24 08:18:04;;;;;;;10.67;9.53;;;13.50;98.10;;;;;;5021652;28;20433;-42
2022/04/24 08:20:29;;;;;;;9.23;8.33;;;13.50;98.10;;;;;;5031766;28;20503;-43
2022/04/24 08:22:57;;;;;;;9.87;8.97;;;13.50;98.00;;;;;;5032494;28;20527;-43
2022/04/24 08:25:25;;;;;;;10.93;9.67;;;13.60;98.10;;;;;;5045163;28;20305;-42
2022/04/24 08:27:53;;;;;;;10.73;9.73;;;13.60;97.60;;;;;;5050730;28;20435;-42
2022/04/24 08:30:20;;;;;;;10.30;9.30;;;13.50;97.50;;;;;;5049960;28;20427;-42
2022/04/24 08:32:47;;;;;;;11.10;9.90;;;13.50;97.90;;;;;;5031765;28;20766;-42
2022/04/24 08:35:17;;;;;;;10.67;9.50;;;13.60;97.90;;;;;;5030954;28;20417;-43
2022/04/24 08:37:43;;;;;;;11.40;8.73;;;13.60;97.90;;;;;;5032206;28;20416;-42
2022/04/24 08:40:12;;;;;;;10.63;9.63;;;13.70;98.20;;;;;;5031462;28;20961;-42
2022/04/24 08:42:38;;;;;;;10.37;9.20;;;13.70;98.20;;;;;;5030485;28;20429;-42
2022/04/24 08:45:05;;;;;;;10.30;9.03;;;13.80;98.30;;;;;;5031836;28;20424;-42
2022/04/24 08:47:31;;;;;;;9.73;8.67;;;13.80;98.00;;;;;;5025086;28;20465;-42
2022/04/24 08:50:01;;;;;;;10.77;9.77;;;14.00;97.30;;;;;;5028150;28;20828;-43
2022/04/24 08:52:29;;;;;;;11.37;10.37;;;14.10;97.70;;;;;;5031778;28;20418;-42
2022/04/24 08:54:57;;;;;;;10.87;9.80;;;14.10;96.90;;;;;;5031719;28;20421;-43
2022/04/24 08:57:30;;;;;;;12.30;9.80;;;14.20;97.30;;;;;;5031371;28;20445;-42
2022/04/24 09:00:00;;;;;;;11.70;10.60;;;14.30;96.30;;;;;;5031112;28;20475;-42
2022/04/24 09:02:27;;;;;;;10.10;9.20;;;14.40;96.60;;;;;;5025725;28;20426;-43
2022/04/24 09:04:53;;;;;;;11.90;10.60;;;14.50;97.20;;;;;;5028480;28;20455;-42
2022/04/24 09:07:20;;;;;;;14.33;10.23;;;14.50;96.70;;;;;;5030229;28;20422;-43
2022/04/24 09:09:51;;;;;;;10.60;9.60;;;14.60;96.80;;;;;;5030709;28;20448;-42
2022/04/24 09:12:25;;;;;;;11.27;9.50;;;14.70;96.70;;;;;;5031331;28;20436;-42
2022/04/24 09:14:56;;;;;;;10.90;9.80;;;14.80;96.60;;;;;;5031401;28;20417;-42
2022/04/24 09:17:21;;;;;;;10.23;9.23;;;15.00;95.70;;;;;;5027192;28;20432;-43
2022/04/24 09:19:47;;;;;;;14.20;10.10;;;15.10;95.20;;;;;;5019509;28;20928;-42
2022/04/24 09:22:13;;;;;;;10.73;9.83;;;15.20;95.70;;;;;;5030918;28;20186;-42
2022/04/24 09:25:01;;;;;;;11.20;10.20;;;15.30;95.80;;;;;;5040050;28;20789;-42
2022/04/24 09:27:35;;;;;;;10.50;9.47;;;15.40;95.30;;;;;;5034207;28;20425;-43
2022/04/24 09:30:02;;;;;;;10.10;9.20;;;15.50;94.70;;;;;;5030468;28;20418;-42
2022/04/24 09:32:30;;;;;;;11.67;10.57;;;15.60;94.90;;;;;;5026191;28;20782;-43
2022/04/24 09:34:57;;;;;;;10.90;9.90;;;15.70;94.30;;;;;;5024470;28;20500;-42
2022/04/24 09:37:23;;;;;;;10.50;9.57;;;15.80;93.70;;;;;;5031162;28;20436;-42
2022/04/24 09:39:50;;;;;;;11.90;10.80;;;15.90;93.40;;;;;;5030228;28;20413;-42
2022/04/24 09:42:17;;;;;;;11.40;10.30;;;16.10;93.70;;;;;;5030917;28;20421;-42
2022/04/24 09:44:45;;;;;;;10.67;9.57;;;16.20;93.70;;;;;;5030660;28;20458;-42
2022/04/24 09:47:12;;;;;;;13.00;11.10;;;16.40;94.20;;;;;;5029666;28;20491;-42
2022/04/24 09:49:38;;;;;;;12.90;10.37;;;16.60;92.60;;;;;;5016923;28;21308;-42
2022/04/24 09:52:13;;;;;;;11.53;10.40;;;16.70;92.30;;;;;;5030770;28;20563;-42
2022/04/24 09:54:44;;;;;;;12.20;11.10;;;16.80;92.80;;;;;;5030558;28;20420;-43
2022/04/24 09:57:11;;;;;;;12.00;10.90;;;16.90;92.90;;;;;;5029360;28;20437;-42
2022/04/24 09:59:39;;;;;;;11.90;10.70;;;17.00;92.30;;;;;;5030007;28;20409;-43
2022/04/24 10:02:05;;;;;;;11.33;10.30;;;17.10;91.70;;;;;;5030200;28;20413;-42
2022/04/24 10:04:36;;;;;;;14.83;11.10;;;17.10;92.20;;;;;;5019717;28;20865;-43
2022/04/24 10:07:06;;;;;;;13.00;10.60;;;17.20;91.00;;;;;;5030252;28;20547;-43
2022/04/24 10:09:34;;;;;;;12.27;11.07;;;17.20;90.30;;;;;;5028857;28;20433;-42
2022/04/24 10:12:05;;;;;;;11.03;9.93;;;17.20;90.00;;;;;;5030086;28;20504;-42
2022/04/24 10:14:36;;;;;;;10.57;9.53;;;17.30;90.80;;;;;;5029959;28;20467;-43
2022/04/24 10:17:56;;;;;;;11.30;10.20;;;17.40;91.10;;;;;;5030106;28;20479;-42
2022/04/24 10:20:59;;;;;;;11.30;10.30;;;17.50;89.20;;;;;;4980184;28;20435;-42
2022/04/24 10:23:36;;;;;;;12.00;10.90;;;17.50;89.50;;;;;;5036127;28;20420;-42
2022/04/24 10:26:03;;;;;;;11.20;9.90;;;17.60;90.50;;;;;;5026310;28;20469;-43
2022/04/24 10:28:40;;;;;;;10.40;9.30;;;17.70;90.60;;;;;;5029952;28;20448;-42
2022/04/24 10:31:07;;;;;;;10.70;9.70;;;17.70;85.70;;;;;;5027744;28;20452;-42
2022/04/24 10:33:35;;;;;;;10.50;9.43;;;17.70;85.00;;;;;;5024166;28;20432;-42
2022/04/24 10:36:14;;;;;;;10.27;9.37;;;17.70;84.80;;;;;;5027072;28;20409;-43
2022/04/24 10:38:51;;;;;;;10.10;9.20;;;17.80;85.70;;;;;;5029686;28;20864;-42
2022/04/24 10:41:24;;;;;;;12.57;11.40;;;17.90;87.70;;;;;;5029274;28;20424;-43
2022/04/24 10:44:16;;;;;;;11.50;10.50;;;18.10;88.70;;;;;;5016548;28;20511;-42
2022/04/24 10:46:43;;;;;;;10.57;9.67;;;18.00;87.80;;;;;;5029791;28;20461;-43
2022/04/24 10:49:13;;;;;;;10.73;9.63;;;18.10;84.50;;;;;;5019611;28;20932;-43
2022/04/24 10:51:41;;;;;;;10.87;9.87;;;18.00;85.50;;;;;;5028967;28;20436;-43
2022/04/24 10:54:08;;;;;;;11.53;10.47;;;18.00;84.90;;;;;;5033413;28;20431;-43
2022/04/24 10:56:35;;;;;;;10.10;9.07;;;18.10;85.70;;;;;;5027462;28;20433;-42
2022/04/24 10:59:12;;;;;;;10.93;9.83;;;18.30;86.90;;;;;;5029346;28;20425;-42
2022/04/24 11:01:41;;;;;;;11.37;10.30;;;18.40;83.30;;;;;;5027436;28;20428;-42
2022/04/24 11:04:10;;;;;;;11.30;10.30;;;18.30;83.10;;;;;;5018300;28;20449;-42
2022/04/24 11:06:35;;;;;;;11.07;9.97;;;18.20;83.90;;;;;;5029059;28;21030;-42
2022/04/24 11:09:11;;;;;;;12.80;10.70;;;18.00;83.50;;;;;;5028971;28;20428;-43
2022/04/24 11:11:58;;;;;;;11.20;10.20;;;17.90;83.80;;;;;;5028868;28;20186;-42
2022/04/24 11:14:25;;;;;;;11.13;10.17;;;17.80;82.70;;;;;;5029060;28;20417;-43
2022/04/24 11:16:57;;;;;;;12.90;10.90;;;17.70;83.90;;;;;;5029052;28;20432;-42
2022/04/24 11:19:25;;;;;;;12.40;11.27;;;17.70;83.00;;;;;;5021135;28;20967;-42
2022/04/24 11:21:59;;;;;;;10.50;9.50;;;17.70;84.40;;;;;;5027133;28;20772;-42
2022/04/24 11:24:29;;;;;;;11.73;9.80;;;17.70;84.20;;;;;;5035364;28;20470;-43
2022/04/24 11:26:57;;;;;;;9.53;8.73;;;17.90;82.60;;;;;;5045248;28;20610;-42
2022/04/24 11:29:23;;;;;;;11.30;10.20;;;18.10;81.90;;;;;;5048665;28;20430;-42
2022/04/24 11:31:51;;;;;;;11.73;10.73;;;18.10;82.70;;;;;;5047699;28;20891;-42
2022/04/24 11:34:20;;;;;;;10.83;9.83;;;18.10;82.20;;;;;;5026739;28;20437;-42
2022/04/24 11:36:48;;;;;;;10.23;9.37;;;18.20;81.80;;;;;;5024295;28;20426;-43
2022/04/24 11:39:14;;;;;;;10.13;9.23;;;18.40;77.50;;;;;;5028931;28;20420;-42
2022/04/24 11:41:43;;;;;;;10.13;9.23;;;18.30;77.20;;;;;;5026898;28;20429;-43
2022/04/24 11:52:40;;;;;;;9.47;8.57;;;18.70;78.30;;;;;;5023147;28;20483;-43
2022/04/24 11:56:01;;;;;;;10.67;9.77;;;18.70;77.00;;;;;;5028940;28;20421;-43
2022/04/24 11:58:12;;;;;;;17.33;10.47;;;18.70;79.10;;;;;;5028354;28;20441;-43
2022/04/24 12:00:38;;;;;;;11.70;10.50;;;18.70;81.20;;;;;;5028003;28;20427;-42
2022/04/24 12:03:07;;;;;;;11.10;10.10;;;18.70;83.80;;;;;;5028885;28;20554;-42
2022/04/24 12:05:34;;;;;;;11.90;10.83;;;18.70;82.00;;;;;;5014401;28;20511;-43
2022/04/24 12:08:00;;;;;;;11.30;10.33;;;18.60;80.40;;;;;;5028481;28;20728;-42
2022/04/24 12:10:26;;;;;;;11.53;10.43;;;18.40;80.80;;;;;;5028120;28;20425;-43
2022/04/24 12:12:54;;;;;;;11.27;10.27;;;18.20;83.80;;;;;;5028649;28;20429;-43
2022/04/24 12:15:24;;;;;;;11.27;10.30;;;18.20;84.60;;;;;;5021654;28;20457;-42
2022/04/24 12:17:58;;;;;;;11.63;10.60;;;18.40;83.40;;;;;;5028569;28;20417;-43
2022/04/24 12:20:40;;;;;;;11.50;10.40;;;18.30;82.00;;;;;;5016913;28;20844;-42
2022/04/24 12:23:16;;;;;;;11.97;10.87;;;18.20;80.80;;;;;;5028418;28;20428;-43
2022/04/24 12:25:53;;;;;;;11.70;10.60;;;18.00;83.20;;;;;;5044983;28;20459;-43
2022/04/24 12:28:35;;;;;;;11.60;10.60;;;18.10;84.30;;;;;;5048099;28;20424;-43
2022/04/24 12:31:03;;;;;;;10.83;9.80;;;18.30;83.80;;;;;;5047985;28;20424;-43
2022/04/24 12:33:30;;;;;;;11.13;10.00;;;18.50;83.20;;;;;;5045823;28;20455;-42
2022/04/24 12:36:07;;;;;;;11.30;10.23;;;18.70;83.60;;;;;;5023562;28;20923;-43
2022/04/24 12:38:33;;;;;;;11.03;10.03;;;18.80;82.60;;;;;;5028440;28;20909;-43
2022/04/24 12:40:59;;;;;;;10.93;9.93;;;18.70;79.60;;;;;;5027995;28;20425;-42
2022/04/24 12:43:30;;;;;;;11.17;10.17;;;18.50;81.00;;;;;;5031363;28;20281;-43
2022/04/24 12:45:57;;;;;;;10.13;9.20;;;18.30;80.00;;;;;;5032049;28;20457;-43
2022/04/24 12:48:24;;;;;;;10.83;9.00;;;18.00;81.20;;;;;;5031730;28;20827;-43
2022/04/24 12:50:53;;;;;;;10.57;9.57;;;18.10;86.50;;;;;;5018625;28;20540;-42
2022/04/24 12:53:20;;;;;;;9.90;8.90;;;18.30;83.40;;;;;;5031563;28;20442;-42